カシュガル の空港の天気 - METARとTAF

カシュガル空港 ( ZWSH / KHG ) - 中国 新疆ウイグル自治区カシュガル市
飛行場実況気象(Metar)
観測時間02/17 22:00 CST (02/17 14:00 UTC)
風向・風速不定 1m/s
視程6000m
天気現象
少しの雲 雲底高度 1220m
気温1℃
湿度32%
気圧1013hPa
METARZWSH 171400Z VRB01MPS 6000 FEW040 01/M14 Q1013 NOSIG
過去の天気等 Google飛行場航空写真 Wunderground天気予報

過去48時間のMETAR

飛行場予報(TAF)
発表時間: 2/17 17:03 CST (2/17 09:03 UTC)
予報対象時間: 17日20時 CST ~ 18日20時 CST
風向・風速東北東 4m/s
視程6000m
全天の4割程度の雲 雲底高度 1220m
17日23時 CST ~ 17日24時 CST に徐々に
風向・風速北北西 4m/s
TAF ZWSH 170903Z 1712/1812 06004MPS 6000 SCT040 TX04/1809Z TNM03/00Z
BECMG 1715/1716 33004MPS